createdAt,value
2023-04-04T00:01:42.086Z,47.76
2023-04-04T00:04:08.799Z,48.71
2023-04-04T00:06:35.475Z,49.99
2023-04-04T00:09:02.109Z,49.60
2023-04-04T00:11:28.829Z,49.22
2023-04-04T00:13:55.445Z,49.28
2023-04-04T00:16:22.247Z,50.06
2023-04-04T00:18:48.985Z,49.89
2023-04-04T00:21:15.616Z,50.18
2023-04-04T00:23:42.278Z,49.32
2023-04-04T00:26:08.866Z,50.19
2023-04-04T00:28:35.517Z,50.35
2023-04-04T00:31:02.229Z,51.44
2023-04-04T00:33:28.865Z,49.63
2023-04-04T00:35:55.530Z,48.99
2023-04-04T00:38:22.268Z,49.74
2023-04-04T00:40:51.071Z,50.88
2023-04-04T00:43:19.039Z,49.73
2023-04-04T00:45:46.566Z,49.81
2023-04-04T00:48:13.704Z,51.08
2023-04-04T00:50:40.567Z,48.70
2023-04-04T00:53:07.743Z,49.98
2023-04-04T00:55:37.627Z,50.03
2023-04-04T00:58:04.829Z,50.31
2023-04-04T01:00:34.520Z,50.85
2023-04-04T01:03:01.522Z,50.84
2023-04-04T01:05:28.341Z,50.39
2023-04-04T01:07:55.251Z,50.64
2023-04-04T01:10:21.894Z,51.55
2023-04-04T01:12:48.749Z,52.74
2023-04-04T01:15:15.572Z,51.89
2023-04-04T01:17:42.481Z,51.99
2023-04-04T01:20:14.306Z,51.42
2023-04-04T01:22:42.599Z,51.14
2023-04-04T01:25:09.608Z,51.84
2023-04-04T01:27:36.385Z,50.98
2023-04-04T01:30:03.707Z,52.03
2023-04-04T01:32:53.563Z,51.93
2023-04-04T01:35:54.929Z,51.98
2023-04-04T01:38:31.049Z,51.46
2023-04-04T01:41:08.264Z,52.44
2023-04-04T01:43:35.442Z,52.12
2023-04-04T01:46:02.110Z,52.93
2023-04-04T01:48:28.788Z,52.43
2023-04-04T01:50:55.527Z,53.35
2023-04-04T01:53:22.140Z,52.46
2023-04-04T01:55:48.761Z,52.93
2023-04-04T01:58:15.818Z,52.52
2023-04-04T02:00:42.801Z,52.43
2023-04-04T02:03:09.514Z,53.24
2023-04-04T02:05:36.101Z,53.01
2023-04-04T02:08:02.810Z,54.46
2023-04-04T02:10:29.564Z,53.94
2023-04-04T02:12:56.190Z,53.57
2023-04-04T02:15:22.897Z,53.82
2023-04-04T02:17:49.952Z,53.16
2023-04-04T02:20:16.942Z,52.65
2023-04-04T02:22:43.582Z,53.74
2023-04-04T02:25:10.178Z,54.77
2023-04-04T02:27:36.873Z,54.69
2023-04-04T02:30:03.618Z,54.27
2023-04-04T02:32:30.269Z,54.13
2023-04-04T02:34:56.959Z,54.29
2023-04-04T02:37:23.602Z,53.91
2023-04-04T02:39:50.451Z,54.70
2023-04-04T02:42:17.063Z,55.90
2023-04-04T02:44:43.706Z,55.02
2023-04-04T02:47:10.425Z,55.30
2023-04-04T02:49:37.196Z,54.84
2023-04-04T02:52:04.048Z,53.96
2023-04-04T02:54:30.691Z,55.20
2023-04-04T02:56:57.331Z,55.49
2023-04-04T02:59:24.258Z,54.35
2023-04-04T03:01:51.168Z,54.74
2023-04-04T03:04:17.866Z,54.37
2023-04-04T03:06:44.523Z,55.14
2023-04-04T03:09:11.504Z,54.30
2023-04-04T03:11:38.171Z,54.42
2023-04-04T03:14:04.925Z,56.40
2023-04-04T03:16:31.791Z,55.53
2023-04-04T03:18:58.607Z,56.32
2023-04-04T03:21:25.563Z,54.63
2023-04-04T03:23:52.167Z,55.41
2023-04-04T03:26:18.802Z,56.00
2023-04-04T03:28:45.448Z,55.60
2023-04-04T03:31:12.036Z,56.70
2023-04-04T03:33:38.731Z,56.31
2023-04-04T03:36:12.776Z,55.75
2023-04-04T03:38:40.086Z,56.75
2023-04-04T03:41:07.811Z,56.94
2023-04-04T03:43:34.797Z,56.13
2023-04-04T03:46:05.595Z,57.15
2023-04-04T03:48:32.698Z,58.09
2023-04-04T03:50:59.970Z,57.59
2023-04-04T03:53:27.232Z,56.47
2023-04-04T03:55:56.323Z,57.75
2023-04-04T03:58:23.825Z,56.36
2023-04-04T04:00:50.436Z,56.42
2023-04-04T04:03:17.424Z,56.07
2023-04-04T04:05:44.180Z,56.30
2023-04-04T04:08:10.896Z,58.30
2023-04-04T04:10:37.534Z,57.76
2023-04-04T04:13:04.178Z,57.32
2023-04-04T04:15:30.791Z,57.46
2023-04-04T04:17:57.475Z,56.90
2023-04-04T04:20:24.116Z,57.25
2023-04-04T04:22:52.554Z,57.19
2023-04-04T04:25:20.569Z,57.61
2023-04-04T04:27:47.181Z,57.49
2023-04-04T04:30:13.932Z,57.68
2023-04-04T04:32:40.645Z,57.92
2023-04-04T04:35:08.141Z,57.52
2023-04-04T04:37:34.870Z,57.79
2023-04-04T04:40:01.513Z,58.36
2023-04-04T04:42:28.153Z,58.64
2023-04-04T04:44:54.790Z,58.01
2023-04-04T04:47:21.527Z,56.96
2023-04-04T04:49:48.207Z,56.35
2023-04-04T04:52:14.867Z,57.30
2023-04-04T04:54:41.494Z,58.27
2023-04-04T04:57:08.133Z,56.72
2023-04-04T04:59:34.789Z,58.02
2023-04-04T05:02:01.597Z,58.09
2023-04-04T05:04:28.370Z,57.67
2023-04-04T05:06:54.962Z,58.65
2023-04-04T05:09:21.653Z,58.12
2023-04-04T05:11:48.290Z,55.82
2023-04-04T05:14:14.936Z,57.27
2023-04-04T05:16:41.582Z,56.83
2023-04-04T05:19:08.226Z,58.60
2023-04-04T05:21:34.873Z,57.90
2023-04-04T05:24:01.560Z,58.02
2023-04-04T05:26:28.167Z,58.21
2023-04-04T05:28:54.826Z,57.89
2023-04-04T05:31:21.454Z,56.53
2023-04-04T05:33:48.061Z,55.57
2023-04-04T05:36:14.902Z,54.51
2023-04-04T05:38:41.725Z,56.25
2023-04-04T05:41:08.333Z,57.62
2023-04-04T05:43:35.018Z,54.51
2023-04-04T05:46:01.867Z,57.49
2023-04-04T05:48:28.524Z,55.83
2023-04-04T05:50:55.124Z,55.58
2023-04-04T05:53:21.761Z,55.64
2023-04-04T05:55:57.444Z,55.16
2023-04-04T05:58:24.123Z,55.64
2023-04-04T06:00:50.903Z,55.36
2023-04-04T06:03:19.668Z,54.91
2023-04-04T06:05:53.983Z,53.42
2023-04-04T06:08:20.648Z,54.13
2023-04-04T06:10:47.266Z,54.98
2023-04-04T06:13:13.881Z,51.84
2023-04-04T06:15:40.530Z,53.80
2023-04-04T06:18:07.373Z,52.64
2023-04-04T06:20:34.086Z,53.25
2023-04-04T06:23:00.725Z,51.99
2023-04-04T06:25:27.609Z,51.88
2023-04-04T06:27:54.213Z,52.88
2023-04-04T06:30:21.303Z,52.83
2023-04-04T06:32:47.931Z,52.04
2023-04-04T06:35:14.676Z,51.76
2023-04-04T06:37:41.299Z,50.47
2023-04-04T06:40:08.555Z,51.98
2023-04-04T06:42:35.204Z,50.33
2023-04-04T06:45:01.870Z,50.84
2023-04-04T06:47:28.500Z,51.76
2023-04-04T06:49:55.315Z,52.29
2023-04-04T06:52:22.180Z,51.93
2023-04-04T06:54:49.452Z,51.46
2023-04-04T06:57:16.099Z,51.85
2023-04-04T06:59:44.928Z,50.89
2023-04-04T07:02:11.924Z,51.08
2023-04-04T07:04:38.574Z,50.11
2023-04-04T07:07:05.231Z,51.21
2023-04-04T07:09:31.920Z,50.76
2023-04-04T07:11:58.580Z,50.19
2023-04-04T07:14:25.757Z,51.40
2023-04-04T07:16:53.293Z,50.96
2023-04-04T07:19:20.158Z,49.77
2023-04-04T07:21:46.863Z,50.98
2023-04-04T07:24:13.488Z,49.79
2023-04-04T07:26:40.227Z,50.53
2023-04-04T07:29:06.940Z,49.85
2023-04-04T07:31:33.702Z,48.50
2023-04-04T07:34:00.357Z,47.84
2023-04-04T07:36:26.996Z,49.61
2023-04-04T07:38:53.668Z,50.00
2023-04-04T07:41:20.464Z,47.87
2023-04-04T07:43:47.144Z,48.79
2023-04-04T07:46:13.973Z,48.27
2023-04-04T07:48:40.703Z,49.31
2023-04-04T07:51:07.455Z,47.57
2023-04-04T07:53:34.119Z,48.17
2023-04-04T07:56:00.753Z,47.62
2023-04-04T07:58:27.370Z,48.33
2023-04-04T08:00:54.110Z,48.66
2023-04-04T08:03:20.934Z,47.79
2023-04-04T08:05:47.676Z,47.24
2023-04-04T08:08:14.572Z,48.78
2023-04-04T08:10:41.625Z,48.30
2023-04-04T08:13:08.504Z,47.39
2023-04-04T08:15:35.194Z,48.37
2023-04-04T08:18:02.117Z,46.18
2023-04-04T08:20:28.902Z,46.25
2023-04-04T08:22:55.470Z,47.52
2023-04-04T08:25:22.129Z,46.19
2023-04-04T08:27:48.754Z,46.13
2023-04-04T08:30:15.624Z,47.17
2023-04-04T08:32:42.737Z,46.48
2023-04-04T08:35:09.921Z,45.85
2023-04-04T08:37:36.673Z,46.91
2023-04-04T08:40:04.416Z,46.87
2023-04-04T08:42:33.501Z,45.49
2023-04-04T08:45:02.113Z,47.11
2023-04-04T08:47:33.177Z,44.02
2023-04-04T08:50:00.396Z,45.50
2023-04-04T08:52:28.273Z,44.91
2023-04-04T08:54:56.097Z,45.49
2023-04-04T08:57:22.755Z,44.20
2023-04-04T08:59:49.566Z,45.98
2023-04-04T09:02:38.032Z,47.00
2023-04-04T09:05:06.651Z,46.33
2023-04-04T09:07:37.113Z,45.88
2023-04-04T09:10:06.150Z,45.98
2023-04-04T09:12:36.799Z,45.24
2023-04-04T09:15:03.935Z,45.25
2023-04-04T09:17:30.643Z,44.70
2023-04-04T09:20:01.686Z,43.93
2023-04-04T09:22:28.299Z,44.41
2023-04-04T09:24:54.892Z,46.88
2023-04-04T09:27:21.557Z,44.35
2023-04-04T09:29:48.492Z,44.11
2023-04-04T09:32:16.282Z,45.15
2023-04-04T09:34:44.143Z,44.33
2023-04-04T09:37:10.886Z,45.10
2023-04-04T09:39:39.305Z,44.31
2023-04-04T09:42:06.609Z,44.08
2023-04-04T09:44:35.769Z,44.88
2023-04-04T09:49:57.978Z,42.91
2023-04-04T09:52:24.819Z,42.53
2023-04-04T09:55:03.089Z,43.79
2023-04-04T09:57:31.921Z,42.73
2023-04-04T09:59:59.813Z,44.60
2023-04-04T10:02:27.607Z,43.49
2023-04-04T10:05:05.265Z,44.58
2023-04-04T10:07:33.129Z,42.00
2023-04-04T10:10:06.640Z,40.67
2023-04-04T10:12:33.397Z,41.49
2023-04-04T10:15:01.176Z,41.42
2023-04-04T10:17:41.220Z,43.82
2023-04-04T10:20:09.618Z,39.71
2023-04-04T10:22:37.881Z,40.65
2023-04-04T10:25:05.929Z,40.97
2023-04-04T10:27:33.236Z,41.42
2023-04-04T10:30:03.428Z,41.17
2023-04-04T10:32:42.119Z,39.33
2023-04-04T10:35:09.675Z,40.49
2023-04-04T10:37:43.102Z,41.80
2023-04-04T10:40:16.272Z,40.40
2023-04-04T10:42:48.526Z,40.05
2023-04-04T10:45:21.124Z,41.36
2023-04-04T10:47:48.950Z,39.30
2023-04-04T10:50:15.743Z,41.41
2023-04-04T10:52:44.151Z,40.14
2023-04-04T10:55:13.131Z,38.51
2023-04-04T10:57:45.752Z,37.64
2023-04-04T11:00:17.229Z,37.66
2023-04-04T11:02:53.071Z,41.44
2023-04-04T11:05:22.394Z,39.13
2023-04-04T11:08:07.340Z,40.59
2023-04-04T11:10:36.403Z,39.97
2023-04-04T11:13:14.750Z,36.99
2023-04-04T11:16:07.264Z,38.62
2023-04-04T11:18:39.961Z,37.71
2023-04-04T11:21:08.554Z,39.09
2023-04-04T11:23:47.319Z,37.98
2023-04-04T11:26:17.497Z,38.67
2023-04-04T11:28:46.025Z,38.39
2023-04-04T11:31:15.801Z,38.54
2023-04-04T11:33:58.300Z,37.00
2023-04-04T11:36:45.476Z,38.20
2023-04-04T11:39:21.495Z,38.53
2023-04-04T11:41:54.606Z,39.81
2023-04-04T11:44:27.016Z,37.42
2023-04-04T11:47:05.419Z,37.92
2023-04-04T11:49:37.133Z,34.81
2023-04-04T11:52:12.148Z,36.63
2023-04-04T11:54:40.979Z,38.87
2023-04-04T11:57:12.195Z,38.03
2023-04-04T11:59:44.292Z,34.85
2023-04-04T12:02:12.530Z,36.90
2023-04-04T12:04:42.825Z,36.67
2023-04-04T12:07:10.451Z,38.39
2023-04-04T12:09:38.257Z,35.83
2023-04-04T12:12:05.194Z,35.82
2023-04-04T12:14:33.231Z,37.61
2023-04-04T12:17:00.287Z,36.20
2023-04-04T12:19:28.790Z,38.54
2023-04-04T12:21:57.535Z,37.90
2023-04-04T12:24:24.442Z,39.34
2023-04-04T12:26:52.927Z,36.29
2023-04-04T12:29:22.932Z,37.59
2023-04-04T12:31:51.100Z,38.45
2023-04-04T12:34:19.186Z,36.12
2023-04-04T12:36:50.492Z,35.16
2023-04-04T12:39:17.195Z,37.04
2023-04-04T12:41:54.830Z,37.10
2023-04-04T12:44:34.171Z,36.31
2023-04-04T12:47:03.652Z,37.11
2023-04-04T12:49:32.801Z,38.12
2023-04-04T12:51:59.506Z,37.71
2023-04-04T12:54:31.315Z,38.33
2023-04-04T12:56:58.859Z,36.34
2023-04-04T12:59:30.348Z,36.80
2023-04-04T13:01:57.754Z,36.92
2023-04-04T13:04:24.736Z,38.54
2023-04-04T13:06:51.822Z,37.09
2023-04-04T13:09:20.310Z,36.11
2023-04-04T13:12:07.113Z,35.75
2023-04-04T13:15:05.640Z,35.03
2023-04-04T13:17:46.657Z,35.17
2023-04-04T13:20:15.707Z,37.93
2023-04-04T13:22:43.085Z,36.07
2023-04-04T13:25:10.914Z,39.10
2023-04-04T13:27:38.660Z,37.37
2023-04-04T13:30:07.080Z,35.50
2023-04-04T13:32:34.285Z,37.61
2023-04-04T13:35:00.937Z,34.80
2023-04-04T13:37:27.628Z,36.78
2023-04-04T13:39:54.236Z,34.73
2023-04-04T13:42:20.999Z,35.20
2023-04-04T13:44:47.746Z,33.38
2023-04-04T13:47:14.734Z,35.41
2023-04-04T13:49:41.376Z,35.59
2023-04-04T13:52:07.953Z,33.97
2023-04-04T13:54:34.562Z,35.08
2023-04-04T13:57:01.220Z,35.09
2023-04-04T13:59:27.914Z,34.89
2023-04-04T14:01:54.841Z,36.60
2023-04-04T14:04:24.078Z,35.96
2023-04-04T14:06:51.149Z,33.41
2023-04-04T14:09:17.745Z,36.92
2023-04-04T14:11:45.880Z,34.54
2023-04-04T14:14:12.560Z,35.58
2023-04-04T14:16:39.280Z,35.74
2023-04-04T14:19:06.073Z,32.15
2023-04-04T14:21:32.778Z,33.19
2023-04-04T14:23:59.452Z,33.22
2023-04-04T14:26:26.157Z,35.17
2023-04-04T14:28:52.814Z,36.16
2023-04-04T14:31:19.601Z,32.53
2023-04-04T14:33:46.284Z,31.91
2023-04-04T14:36:12.928Z,33.54
2023-04-04T14:38:39.590Z,33.08
2023-04-04T14:41:06.227Z,31.74
2023-04-04T14:43:32.851Z,32.77
2023-04-04T14:45:59.532Z,32.96
2023-04-04T14:48:26.147Z,32.71
2023-04-04T14:50:52.910Z,32.15
2023-04-04T14:53:19.559Z,33.97
2023-04-04T14:55:46.216Z,34.10
2023-04-04T14:58:12.861Z,36.12
2023-04-04T15:00:39.493Z,34.53
2023-04-04T15:03:07.223Z,34.02
2023-04-04T15:05:34.126Z,33.51
2023-04-04T15:08:00.791Z,33.97
2023-04-04T15:10:27.499Z,35.88
2023-04-04T15:12:54.122Z,34.35
2023-04-04T15:15:23.445Z,33.87
2023-04-04T15:17:51.169Z,34.80
2023-04-04T15:20:18.080Z,34.12
2023-04-04T15:22:44.914Z,34.65
2023-04-04T15:25:11.638Z,35.05
2023-04-04T15:27:38.430Z,34.56
2023-04-04T15:30:05.561Z,34.44
2023-04-04T15:32:32.363Z,34.02
2023-04-04T15:34:59.102Z,33.36
2023-04-04T15:37:25.699Z,33.89
2023-04-04T15:39:53.827Z,34.98
2023-04-04T15:42:21.180Z,34.32
2023-04-04T15:44:47.818Z,34.42
2023-04-04T15:47:16.358Z,34.89
2023-04-04T15:49:43.264Z,33.99
2023-04-04T15:52:10.250Z,34.66
2023-04-04T15:54:36.910Z,32.53
2023-04-04T15:57:03.693Z,34.18
2023-04-04T15:59:30.441Z,31.80
2023-04-04T16:01:57.796Z,32.61
2023-04-04T16:04:24.443Z,33.77
2023-04-04T16:06:51.033Z,33.04
2023-04-04T16:09:17.717Z,34.54
2023-04-04T16:11:44.349Z,33.57
2023-04-04T16:14:11.075Z,34.27
2023-04-04T16:16:37.723Z,33.61
2023-04-04T16:19:04.467Z,33.63
2023-04-04T16:21:31.321Z,34.73
2023-04-04T16:23:58.112Z,34.53
2023-04-04T16:26:25.255Z,34.88
2023-04-04T16:28:52.884Z,35.28
2023-04-04T16:31:19.582Z,35.08
2023-04-04T16:33:46.499Z,35.61
2023-04-04T16:36:13.268Z,35.97
2023-04-04T16:38:39.969Z,36.13
2023-04-04T16:41:06.780Z,34.99
2023-04-04T16:43:33.401Z,35.02
2023-04-04T16:46:00.148Z,35.13
2023-04-04T16:48:26.777Z,35.93
2023-04-04T16:50:54.520Z,35.88
2023-04-04T16:53:21.287Z,35.87
2023-04-04T16:55:47.932Z,35.73
2023-04-04T16:58:14.693Z,37.34
2023-04-04T17:00:41.570Z,36.44
2023-04-04T17:03:08.760Z,35.80
2023-04-04T17:05:35.472Z,36.19
2023-04-04T17:08:02.075Z,36.38
2023-04-04T17:10:28.796Z,37.79
2023-04-04T17:12:55.445Z,36.79
2023-04-04T17:15:22.142Z,38.65
2023-04-04T17:17:48.841Z,37.69
2023-04-04T17:20:15.577Z,37.75
2023-04-04T17:22:42.181Z,38.92
2023-04-04T17:25:09.174Z,38.79
2023-04-04T17:27:35.843Z,38.02
2023-04-04T17:30:02.560Z,38.02
2023-04-04T17:32:29.441Z,38.42
2023-04-04T17:34:56.099Z,38.77
2023-04-04T17:37:23.019Z,37.78
2023-04-04T17:39:49.745Z,39.29
2023-04-04T17:42:16.416Z,38.50
2023-04-04T17:44:43.240Z,38.50
2023-04-04T17:47:09.909Z,39.33
2023-04-04T17:49:39.759Z,37.78
2023-04-04T17:52:06.576Z,39.17
2023-04-04T17:54:34.869Z,39.03
2023-04-04T17:57:01.477Z,38.06
2023-04-04T17:59:28.170Z,38.91
2023-04-04T18:01:55.008Z,40.51
2023-04-04T18:04:21.757Z,39.79
2023-04-04T18:06:48.361Z,38.83
2023-04-04T18:09:14.957Z,39.18
2023-04-04T18:11:41.582Z,39.93
2023-04-04T18:14:08.541Z,39.75
2023-04-04T18:16:39.825Z,40.62
2023-04-04T18:19:08.380Z,41.25
2023-04-04T18:21:34.970Z,39.53
2023-04-04T18:24:01.609Z,40.74
2023-04-04T18:26:28.318Z,40.57
2023-04-04T18:28:54.916Z,41.03
2023-04-04T18:31:21.660Z,40.19
2023-04-04T18:33:50.811Z,40.65
2023-04-04T18:36:17.554Z,40.06
2023-04-04T18:38:45.436Z,40.24
2023-04-04T18:41:12.535Z,39.91
2023-04-04T18:43:39.134Z,40.83
2023-04-04T18:46:05.939Z,40.62
2023-04-04T18:48:33.534Z,41.73
2023-04-04T18:51:00.782Z,40.93
2023-04-04T18:53:27.497Z,40.64
2023-04-04T18:55:54.175Z,41.37
2023-04-04T18:58:20.875Z,42.14
2023-04-04T19:00:47.629Z,42.00
2023-04-04T19:03:14.399Z,42.29
2023-04-04T19:05:46.677Z,42.17
2023-04-04T19:08:15.880Z,41.93
2023-04-04T19:10:49.757Z,41.35
2023-04-04T19:13:19.470Z,42.91
2023-04-04T19:15:46.062Z,42.96
2023-04-04T19:18:12.780Z,43.55
2023-04-04T19:20:39.442Z,43.38
2023-04-04T19:23:06.074Z,42.78
2023-04-04T19:25:32.765Z,43.82
2023-04-04T19:27:59.398Z,45.99
2023-04-04T19:30:42.536Z,45.11
2023-04-04T19:33:11.660Z,44.01
2023-04-04T19:36:10.901Z,42.77
2023-04-04T19:38:39.854Z,44.70
2023-04-04T19:41:18.404Z,44.74
2023-04-04T19:43:47.006Z,45.39
2023-04-04T19:46:25.211Z,45.11
2023-04-04T19:48:53.958Z,45.00
2023-04-04T19:51:20.536Z,44.68
2023-04-04T19:53:49.113Z,45.44
2023-04-04T19:56:17.379Z,44.97
2023-04-04T19:58:45.163Z,44.40
2023-04-04T20:01:13.414Z,44.96
2023-04-04T20:03:40.759Z,43.58
2023-04-04T20:06:12.569Z,45.18
2023-04-04T20:08:43.001Z,45.01
2023-04-04T20:11:12.157Z,44.42
2023-04-04T20:13:40.352Z,44.84
2023-04-04T20:16:09.761Z,44.72
2023-04-04T20:18:37.952Z,45.07
2023-04-04T20:21:15.813Z,44.19
2023-04-04T20:23:48.807Z,45.46
2023-04-04T20:26:37.040Z,45.95
2023-04-04T20:29:11.691Z,46.03
2023-04-04T20:31:43.950Z,44.97
2023-04-04T20:34:34.195Z,44.54
2023-04-04T20:37:02.592Z,45.49
2023-04-04T20:39:56.179Z,45.91
2023-04-04T20:42:41.049Z,46.84
2023-04-04T20:45:10.747Z,46.86
2023-04-04T20:47:54.429Z,46.16
2023-04-04T20:50:24.127Z,46.11
2023-04-04T20:53:04.229Z,46.24
2023-04-04T20:55:33.057Z,46.95
2023-04-04T20:58:07.953Z,46.53
2023-04-04T21:00:41.447Z,46.63
2023-04-04T21:03:26.067Z,48.11
2023-04-04T21:05:59.493Z,48.04
2023-04-04T21:08:26.194Z,47.05
2023-04-04T21:10:58.660Z,47.60
2023-04-04T21:13:31.392Z,47.06
2023-04-04T21:16:03.629Z,47.79
2023-04-04T21:18:31.788Z,47.68
2023-04-04T21:21:13.628Z,46.24
2023-04-04T21:24:00.399Z,47.01
2023-04-04T21:26:28.201Z,48.14
2023-04-04T21:28:56.753Z,48.55
2023-04-04T21:31:25.977Z,48.66
2023-04-04T21:33:54.830Z,48.36
2023-04-04T21:36:24.457Z,48.67
2023-04-04T21:39:02.057Z,47.88
2023-04-04T21:41:33.737Z,47.79
2023-04-04T21:44:02.745Z,48.04
2023-04-04T21:46:34.197Z,49.24
2023-04-04T21:49:02.361Z,49.63
2023-04-04T21:51:29.183Z,49.83
2023-04-04T21:53:56.282Z,48.91
2023-04-04T21:56:23.129Z,49.88
2023-04-04T21:58:49.739Z,50.23
2023-04-04T22:01:16.467Z,48.39
2023-04-04T22:03:43.153Z,49.12
2023-04-04T22:06:09.898Z,48.48
2023-04-04T22:08:36.546Z,49.79
2023-04-04T22:11:03.452Z,48.19
2023-04-04T22:13:30.385Z,49.26
2023-04-04T22:15:58.021Z,50.17
2023-04-04T22:18:25.096Z,49.22
2023-04-04T22:20:51.698Z,49.58
2023-04-04T22:23:18.286Z,49.60
2023-04-04T22:25:44.885Z,49.85
2023-04-04T22:28:11.698Z,49.79
2023-04-04T22:30:38.599Z,50.09
2023-04-04T22:33:05.513Z,49.79
2023-04-04T22:35:33.156Z,50.85
2023-04-04T22:38:00.286Z,49.69
2023-04-04T22:40:32.193Z,49.27
2023-04-04T22:42:59.989Z,50.44
2023-04-04T22:45:27.378Z,51.35
2023-04-04T22:47:54.117Z,51.12
2023-04-04T22:50:22.484Z,50.57
2023-04-04T22:52:49.116Z,51.51
2023-04-04T22:55:21.891Z,51.12
2023-04-04T22:57:48.514Z,50.45
2023-04-04T23:00:15.707Z,51.10
2023-04-04T23:02:45.431Z,52.08
2023-04-04T23:05:13.897Z,51.71
2023-04-04T23:07:41.833Z,51.61
2023-04-04T23:10:11.570Z,51.77
2023-04-04T23:12:39.136Z,51.38
2023-04-04T23:15:06.984Z,50.88
2023-04-04T23:17:34.967Z,51.96
2023-04-04T23:20:02.403Z,51.05
2023-04-04T23:22:29.747Z,51.30
2023-04-04T23:24:56.390Z,51.92
2023-04-04T23:27:23.062Z,52.63
2023-04-04T23:29:49.666Z,52.42
2023-04-04T23:32:16.344Z,52.88
2023-04-04T23:34:43.144Z,51.94
2023-04-04T23:37:09.787Z,52.78
2023-04-04T23:39:36.427Z,52.81
2023-04-04T23:42:03.130Z,52.97
2023-04-04T23:44:29.818Z,51.75
2023-04-04T23:46:56.859Z,53.49
2023-04-04T23:49:23.570Z,51.16
2023-04-04T23:51:50.220Z,52.11
2023-04-04T23:54:17.059Z,53.41
2023-04-04T23:56:43.753Z,53.49
2023-04-04T23:59:10.498Z,53.98
